This is the latest recevied weather packets stored in our database for station/object LA9UTA-13. If no packets are shown the sender has not sent any weather packets the latest 10 day(s).
| Time | Temp. | Humidity | Pressure | Rain* | Wind** | Luminosity | Snow |
|---|---|---|---|---|---|---|---|
| 1777475882 | 16.11° C | 43% | 1027.2 hPa | 0 mm | - | 162 W/m² | - |
| 1777474682 | 16.67° C | 40% | 1027.1 hPa | 0 mm | - | 314 W/m² | - |
| 1777473481 | 18.33° C | 38% | 1027 hPa | 0 mm | - | 359 W/m² | - |
| 1777472282 | 16.67° C | 39% | 1028.2 hPa | 0 mm | - | 434 W/m² | - |
| 1777471082 | 15.56° C | 41% | 1028.3 hPa | 0 mm | - | 189 W/m² | - |
| 1777469881 | 16.67° C | 40% | 1028.2 hPa | 0 mm | - | 217 W/m² | - |
| 1777468681 | 17.22° C | 39% | 1028.1 hPa | 0 mm | - | 223 W/m² | - |
| 1777467481 | 15.56° C | 42% | 1028.3 hPa | 0 mm | - | 187 W/m² | - |
| 1777466284 | 16.11° C | 41% | 1028.3 hPa | 0 mm | - | 194 W/m² | - |
| 1777465082 | 16.11° C | 39% | 1028.2 hPa | 0 mm | - | 199 W/m² | - |
| 1777463882 | 16.11° C | 39% | 1028.3 hPa | 0 mm | - | 278 W/m² | - |
| 1777462682 | 16.67° C | 37% | 1028.2 hPa | 0 mm | - | 421 W/m² | - |
| 1777461482 | 17.22° C | 38% | 1028.1 hPa | 0 mm | - | 650 W/m² | - |
| 1777460282 | 16.11° C | 38% | 1029.2 hPa | 0 mm | - | 518 W/m² | - |
| 1777457882 | 14.44° C | 39% | 1029.4 hPa | 0 mm | - | 523 W/m² | - |
| 1777456682 | 15° C | 39% | 1029.3 hPa | 0 mm | - | 436 W/m² | - |
| 1777454282 | 13.33° C | 42% | 1029.5 hPa | 0 mm | - | 422 W/m² | - |
| 1777453083 | 14.44° C | 39% | 1029.4 hPa | 0 mm | - | 423 W/m² | - |
| 1777451882 | 12.22° C | 43% | 1029.6 hPa | 0 mm | - | 393 W/m² | - |
| 1777450682 | 13.89° C | 41% | 1029.5 hPa | 0 mm | - | 414 W/m² | - |
| 1777449482 | 13.33° C | 41% | 1029.5 hPa | 0 mm | - | 349 W/m² | - |
| 1777448282 | 14.44° C | 40% | 1029.4 hPa | 0 mm | - | 314 W/m² | - |
| 1777447082 | 10.56° C | 51% | 1029.8 hPa | 0 mm | - | 287 W/m² | - |
| 1777445884 | 11.11° C | 51% | 1030.8 hPa | 0 mm | - | 242 W/m² | - |
| 1777444682 | 10° C | 55% | 1029.8 hPa | 0 mm | - | 237 W/m² | - |
* Rain latest hour (hover to see other rain measurements)
** Current wind speed in m/s (hover to see current wind gust speed)